createdAt,value
2019-03-26T00:01:28.495Z,5.87
2019-03-26T00:04:05.220Z,6.57
2019-03-26T00:06:22.021Z,5.95
2019-03-26T00:08:47.815Z,6.93
2019-03-26T00:11:13.617Z,7.57
2019-03-26T00:13:39.443Z,7.30
2019-03-26T00:16:05.486Z,6.17
2019-03-26T00:18:31.573Z,6.62
2019-03-26T00:20:57.635Z,6.65
2019-03-26T00:23:23.725Z,6.60
2019-03-26T00:25:52.849Z,6.58
2019-03-26T00:28:18.682Z,9.98
2019-03-26T00:30:44.584Z,6.77
2019-03-26T00:33:10.409Z,7.53
2019-03-26T00:35:36.231Z,6.87
2019-03-26T00:38:02.471Z,7.80
2019-03-26T00:40:28.566Z,7.53
2019-03-26T00:42:57.512Z,6.83
2019-03-26T00:47:48.893Z,7.08
2019-03-26T00:50:14.683Z,6.37
2019-03-26T00:52:40.505Z,6.00
2019-03-26T00:55:07.058Z,5.73
2019-03-26T00:57:32.964Z,6.78
2019-03-26T01:00:03.915Z,6.10
2019-03-26T01:02:29.784Z,6.90
2019-03-26T01:04:55.675Z,6.77
2019-03-26T01:07:21.557Z,6.93
2019-03-26T01:09:47.371Z,6.97
2019-03-26T01:12:13.363Z,7.27
2019-03-26T01:14:39.448Z,7.35
2019-03-26T01:17:05.508Z,5.17
2019-03-26T01:19:31.349Z,6.45
2019-03-26T01:21:57.180Z,5.50
2019-03-26T01:24:22.999Z,5.73
2019-03-26T01:26:48.833Z,7.27
2019-03-26T01:29:14.641Z,7.30
2019-03-26T01:31:40.463Z,6.20
2019-03-26T01:34:06.251Z,7.57
2019-03-26T01:36:32.102Z,5.93
2019-03-26T01:38:58.197Z,6.90
2019-03-26T01:41:23.982Z,7.95
2019-03-26T01:43:50.275Z,7.93
2019-03-26T01:46:16.049Z,7.20
2019-03-26T01:48:41.874Z,8.30
2019-03-26T01:51:07.996Z,8.03
2019-03-26T01:53:34.075Z,8.68
2019-03-26T01:56:00.184Z,9.05
2019-03-26T01:58:26.030Z,8.45
2019-03-26T02:00:51.853Z,8.73
2019-03-26T02:03:17.901Z,8.40
2019-03-26T02:05:43.731Z,8.18
2019-03-26T02:08:09.532Z,9.00
2019-03-26T02:10:35.780Z,9.70
2019-03-26T02:13:01.589Z,8.05
2019-03-26T02:15:29.042Z,8.77
2019-03-26T02:17:54.839Z,8.95
2019-03-26T02:20:21.085Z,7.63
2019-03-26T02:22:46.986Z,7.35
2019-03-26T02:25:12.834Z,8.83
2019-03-26T02:27:38.899Z,9.93
2019-03-26T02:30:05.577Z,8.48
2019-03-26T02:32:34.659Z,8.48
2019-03-26T02:35:17.134Z,8.10
2019-03-26T02:37:28.672Z,9.00
2019-03-26T02:39:54.789Z,9.03
2019-03-26T02:42:22.412Z,9.60
2019-03-26T02:44:48.455Z,8.28
2019-03-26T02:47:17.300Z,9.08
2019-03-26T02:49:43.231Z,8.73
2019-03-26T02:52:09.041Z,8.50
2019-03-26T02:54:35.067Z,9.20
2019-03-26T02:57:01.153Z,10.68
2019-03-26T02:59:29.982Z,8.70
2019-03-26T03:01:55.879Z,8.18
2019-03-26T03:04:24.455Z,9.67
2019-03-26T03:06:50.298Z,8.70
2019-03-26T03:09:19.553Z,9.60
2019-03-26T03:11:45.383Z,10.50
2019-03-26T03:14:14.599Z,9.67
2019-03-26T03:16:40.413Z,9.73
2019-03-26T03:19:07.615Z,9.93
2019-03-26T03:21:33.406Z,9.48
2019-03-26T03:24:02.231Z,10.63
2019-03-26T03:26:28.081Z,10.53
2019-03-26T03:28:54.102Z,9.67
2019-03-26T03:31:20.008Z,9.93
2019-03-26T03:33:45.846Z,8.73
2019-03-26T03:36:14.746Z,10.97
2019-03-26T03:38:41.503Z,9.88
2019-03-26T03:41:09.244Z,9.50
2019-03-26T03:43:35.161Z,10.05
2019-03-26T03:46:04.494Z,10.90
2019-03-26T03:48:31.566Z,10.15
2019-03-26T03:50:57.917Z,11.90
2019-03-26T03:53:24.918Z,10.80
2019-03-26T03:55:55.012Z,11.73
2019-03-26T03:58:22.624Z,10.70
2019-03-26T04:00:48.729Z,11.03
2019-03-26T04:03:14.798Z,12.23
2019-03-26T04:05:40.581Z,10.93
2019-03-26T04:08:06.534Z,13.67
2019-03-26T04:10:32.683Z,12.50
2019-03-26T04:12:58.890Z,13.50
2019-03-26T04:15:24.701Z,13.38
2019-03-26T04:17:53.597Z,12.93
2019-03-26T04:20:19.383Z,13.95
2019-03-26T04:22:48.293Z,13.53
2019-03-26T04:25:14.142Z,14.13
2019-03-26T04:27:42.987Z,14.07
2019-03-26T04:30:09.204Z,15.28
2019-03-26T04:32:37.652Z,12.10
2019-03-26T04:35:04.917Z,13.43
2019-03-26T04:37:33.712Z,14.18
2019-03-26T04:39:59.522Z,13.70
2019-03-26T04:42:25.369Z,12.03
2019-03-26T04:44:51.166Z,12.07
2019-03-26T04:47:17.291Z,12.07
2019-03-26T04:49:45.921Z,14.50
2019-03-26T04:52:11.712Z,13.22
2019-03-26T04:54:40.577Z,14.03
2019-03-26T04:57:06.405Z,13.43
2019-03-26T04:59:33.323Z,13.20
2019-03-26T05:01:59.395Z,13.38
2019-03-26T05:04:28.253Z,13.22
2019-03-26T05:06:54.054Z,13.55
2019-03-26T05:09:22.912Z,13.47
2019-03-26T05:11:48.691Z,11.50
2019-03-26T05:14:17.664Z,12.57
2019-03-26T05:16:43.465Z,11.50
2019-03-26T05:19:09.274Z,12.70
2019-03-26T05:21:35.112Z,12.60
2019-03-26T05:24:00.997Z,13.43
2019-03-26T05:26:30.698Z,13.07
2019-03-26T05:28:56.758Z,11.45
2019-03-26T05:31:25.627Z,12.95
2019-03-26T05:33:51.442Z,10.95
2019-03-26T05:36:20.271Z,11.30
2019-03-26T05:38:46.097Z,12.23
2019-03-26T05:41:14.901Z,12.27
2019-03-26T05:43:40.699Z,10.50
2019-03-26T05:46:09.299Z,11.13
2019-03-26T05:48:35.393Z,11.73
2019-03-26T05:51:04.258Z,12.85
2019-03-26T05:53:30.082Z,12.60
2019-03-26T05:55:55.903Z,13.70
2019-03-26T05:58:21.740Z,11.30
2019-03-26T06:00:47.580Z,12.80
2019-03-26T06:03:16.220Z,12.83
2019-03-26T06:05:42.054Z,12.90
2019-03-26T06:08:11.034Z,12.87
2019-03-26T06:10:36.833Z,11.95
2019-03-26T06:13:05.696Z,13.03
2019-03-26T06:15:31.507Z,19.90
2019-03-26T06:18:00.371Z,12.37
2019-03-26T06:20:26.172Z,11.63
2019-03-26T06:22:55.619Z,13.33
2019-03-26T06:25:21.426Z,12.73
2019-03-26T06:27:50.272Z,12.97
2019-03-26T06:30:16.097Z,12.60
2019-03-26T06:32:41.923Z,11.80
2019-03-26T06:35:08.325Z,12.63
2019-03-26T06:37:34.453Z,11.35
2019-03-26T06:40:00.397Z,13.15
2019-03-26T06:42:26.234Z,12.77
2019-03-26T06:44:55.248Z,12.77
2019-03-26T06:47:21.345Z,11.03
2019-03-26T06:49:50.767Z,11.20
2019-03-26T06:52:16.630Z,12.33
2019-03-26T06:54:45.205Z,11.30
2019-03-26T06:57:11.413Z,11.90
2019-03-26T06:59:38.866Z,12.28
2019-03-26T07:02:05.050Z,11.80
2019-03-26T07:04:33.879Z,11.53
2019-03-26T07:06:59.666Z,10.85
2019-03-26T07:09:25.488Z,9.63
2019-03-26T07:11:51.277Z,9.17
2019-03-26T07:14:17.380Z,11.47
2019-03-26T07:16:45.975Z,8.75
2019-03-26T07:19:11.776Z,10.20
2019-03-26T07:21:49.603Z,10.70
2019-03-26T07:24:09.539Z,11.08
2019-03-26T07:26:35.349Z,9.80
2019-03-26T07:29:01.154Z,9.50
2019-03-26T07:31:29.765Z,8.60
2019-03-26T07:33:55.846Z,9.08
2019-03-26T07:36:24.532Z,6.75
2019-03-26T07:38:50.337Z,8.30
2019-03-26T07:41:20.447Z,6.77
2019-03-26T07:43:46.279Z,7.05
2019-03-26T07:46:12.379Z,7.17
2019-03-26T07:48:38.180Z,5.80
2019-03-26T07:51:04.015Z,7.17
2019-03-26T07:53:32.837Z,7.20
2019-03-26T07:55:59.012Z,6.33
2019-03-26T07:58:26.526Z,6.83
2019-03-26T08:00:52.492Z,6.97
2019-03-26T08:03:21.313Z,6.47
2019-03-26T08:05:50.596Z,7.65
2019-03-26T08:08:16.419Z,6.58
2019-03-26T08:10:42.235Z,6.00
2019-03-26T08:13:10.961Z,5.83
2019-03-26T08:15:36.897Z,6.25
2019-03-26T08:18:05.716Z,5.80
2019-03-26T08:20:31.806Z,6.60
2019-03-26T08:22:57.709Z,6.50
2019-03-26T08:25:23.508Z,5.93
2019-03-26T08:27:49.326Z,5.70
2019-03-26T08:30:17.907Z,5.17
2019-03-26T08:32:44.025Z,5.03
2019-03-26T08:35:12.848Z,8.38
2019-03-26T08:37:38.674Z,5.15
2019-03-26T08:40:07.862Z,6.00
2019-03-26T08:42:33.967Z,6.85
2019-03-26T08:45:01.443Z,8.70
2019-03-26T08:47:27.497Z,6.30
2019-03-26T08:49:56.373Z,5.67
2019-03-26T08:52:22.193Z,6.05
2019-03-26T08:54:51.016Z,5.33
2019-03-26T08:57:17.103Z,4.05
2019-03-26T08:59:42.939Z,4.30
2019-03-26T09:02:08.794Z,4.50
2019-03-26T09:04:34.851Z,5.30
2019-03-26T09:07:02.392Z,4.65
2019-03-26T09:09:28.586Z,5.20
2019-03-26T09:11:57.183Z,4.87
2019-03-26T09:14:23.269Z,5.08
2019-03-26T09:16:52.119Z,5.37
2019-03-26T09:19:18.040Z,5.08
2019-03-26T09:21:46.706Z,5.03
2019-03-26T09:24:12.523Z,4.90
2019-03-26T09:26:41.431Z,5.00
2019-03-26T09:29:07.229Z,4.70
2019-03-26T09:31:36.084Z,4.43
2019-03-26T09:34:02.328Z,5.00
2019-03-26T09:36:28.149Z,4.70
2019-03-26T09:38:54.006Z,5.20
2019-03-26T09:41:19.873Z,3.73
2019-03-26T09:43:48.633Z,4.77
2019-03-26T09:46:14.468Z,4.75
2019-03-26T09:48:43.364Z,4.30
2019-03-26T09:51:10.840Z,4.60
2019-03-26T09:53:36.995Z,3.95
2019-03-26T09:56:03.551Z,4.17
2019-03-26T09:58:32.097Z,3.75
2019-03-26T10:00:57.945Z,4.03
2019-03-26T10:03:26.785Z,3.73
2019-03-26T10:05:52.596Z,4.30
2019-03-26T10:08:20.058Z,4.73
2019-03-26T10:10:46.163Z,4.03
2019-03-26T10:13:11.950Z,4.53
2019-03-26T10:15:37.853Z,3.73
2019-03-26T10:18:03.954Z,3.80
2019-03-26T10:20:31.859Z,4.50
2019-03-26T10:22:57.787Z,3.42
2019-03-26T10:25:29.451Z,4.30
2019-03-26T10:27:55.302Z,4.25
2019-03-26T10:30:34.279Z,3.47
2019-03-26T10:33:00.594Z,3.47
2019-03-26T10:35:26.409Z,3.87
2019-03-26T10:37:52.220Z,3.97
2019-03-26T10:40:33.876Z,3.00
2019-03-26T10:42:59.797Z,3.95
2019-03-26T10:45:25.875Z,3.83
2019-03-26T10:47:53.538Z,4.03
2019-03-26T10:50:19.351Z,4.80
2019-03-26T10:52:45.198Z,5.83
2019-03-26T10:55:11.190Z,4.47
2019-03-26T10:57:37.035Z,3.57
2019-03-26T11:00:06.220Z,3.40
2019-03-26T11:02:32.126Z,3.50
2019-03-26T11:04:57.937Z,3.60
2019-03-26T11:07:24.011Z,3.20
2019-03-26T11:09:49.819Z,3.98
2019-03-26T11:12:15.627Z,3.30
2019-03-26T11:14:41.415Z,3.00
2019-03-26T11:17:07.692Z,3.30
2019-03-26T11:19:33.515Z,4.05
2019-03-26T11:21:59.425Z,3.50
2019-03-26T11:24:25.556Z,3.90
2019-03-26T11:26:51.467Z,3.65
2019-03-26T11:29:17.595Z,3.27
2019-03-26T11:31:43.661Z,2.95
2019-03-26T11:34:09.461Z,3.52
2019-03-26T11:36:35.521Z,3.77
2019-03-26T11:39:01.331Z,3.70
2019-03-26T11:41:27.412Z,3.90
2019-03-26T11:43:53.477Z,6.85
2019-03-26T11:46:19.303Z,4.30
2019-03-26T11:48:48.341Z,3.03
2019-03-26T11:51:14.302Z,2.47
2019-03-26T11:53:42.934Z,2.70
2019-03-26T11:56:08.752Z,2.70
2019-03-26T11:58:37.486Z,3.30
2019-03-26T12:01:04.401Z,2.95
2019-03-26T12:03:30.502Z,3.12
2019-03-26T12:05:56.348Z,3.45
2019-03-26T12:08:22.196Z,3.27
2019-03-26T12:10:48.011Z,3.43
2019-03-26T12:13:14.068Z,3.50
2019-03-26T12:15:42.899Z,3.60
2019-03-26T12:18:08.739Z,3.10
2019-03-26T12:20:39.227Z,3.90
2019-03-26T12:23:05.012Z,3.60
2019-03-26T12:25:33.997Z,3.30
2019-03-26T12:27:59.829Z,3.52
2019-03-26T12:30:33.311Z,2.47
2019-03-26T12:32:59.233Z,2.60
2019-03-26T12:35:28.722Z,2.43
2019-03-26T12:37:54.811Z,3.12
2019-03-26T12:40:20.629Z,4.00
2019-03-26T12:42:46.733Z,2.57
2019-03-26T12:45:12.639Z,2.67
2019-03-26T12:47:38.493Z,3.00
2019-03-26T12:50:05.805Z,3.10
2019-03-26T12:52:31.900Z,2.70
2019-03-26T12:54:57.738Z,3.22
2019-03-26T12:57:23.572Z,2.47
2019-03-26T12:59:49.402Z,2.70
2019-03-26T13:02:18.708Z,3.20
2019-03-26T13:04:44.583Z,2.27
2019-03-26T13:07:13.425Z,3.07
2019-03-26T13:09:41.786Z,3.08
2019-03-26T13:12:07.075Z,2.55
2019-03-26T13:14:32.899Z,2.30
2019-03-26T13:16:58.746Z,2.50
2019-03-26T13:19:24.852Z,2.30
2019-03-26T13:21:50.967Z,2.80
2019-03-26T13:24:19.562Z,2.17
2019-03-26T13:26:48.765Z,2.42
2019-03-26T13:29:13.678Z,9.13
2019-03-26T13:31:39.763Z,3.00
2019-03-26T13:34:07.792Z,2.77
2019-03-26T13:36:33.681Z,4.75
2019-03-26T13:39:06.783Z,4.33
2019-03-26T13:41:32.589Z,3.42
2019-03-26T13:43:58.424Z,3.50
2019-03-26T13:46:24.256Z,4.13
2019-03-26T13:48:53.518Z,3.50
2019-03-26T13:51:19.784Z,3.83
2019-03-26T13:53:45.624Z,3.17
2019-03-26T13:56:11.469Z,3.40
2019-03-26T13:58:37.312Z,2.30
2019-03-26T14:01:04.859Z,2.27
2019-03-26T14:03:30.701Z,3.40
2019-03-26T14:06:00.141Z,3.60
2019-03-26T14:08:26.309Z,3.62
2019-03-26T14:10:55.275Z,3.12
2019-03-26T14:13:21.086Z,3.30
2019-03-26T14:15:49.662Z,3.37
2019-03-26T14:18:15.552Z,3.22
2019-03-26T14:20:44.381Z,3.50
2019-03-26T14:23:10.191Z,3.80
2019-03-26T14:25:38.774Z,3.83
2019-03-26T14:28:04.828Z,3.45
2019-03-26T14:30:42.132Z,3.67
2019-03-26T14:33:08.156Z,3.83
2019-03-26T14:35:34.266Z,4.50
2019-03-26T14:38:00.076Z,3.47
2019-03-26T14:40:25.928Z,4.87
2019-03-26T14:42:51.981Z,14.20
2019-03-26T14:45:17.950Z,4.17
2019-03-26T14:47:43.731Z,13.57
2019-03-26T14:50:09.652Z,4.50
2019-03-26T14:52:35.460Z,3.83
2019-03-26T14:55:01.266Z,3.50
2019-03-26T14:57:30.077Z,4.73
2019-03-26T14:59:55.932Z,3.60
2019-03-26T15:02:23.255Z,4.40
2019-03-26T15:04:49.376Z,4.00
2019-03-26T15:07:15.185Z,4.95
2019-03-26T15:09:41.021Z,4.87
2019-03-26T15:12:06.906Z,4.40
2019-03-26T15:14:35.753Z,4.03
2019-03-26T15:17:01.587Z,3.62
2019-03-26T15:19:30.168Z,4.93
2019-03-26T15:21:56.024Z,4.22
2019-03-26T15:24:24.594Z,3.30
2019-03-26T15:26:50.444Z,3.60
2019-03-26T15:29:19.142Z,3.90
2019-03-26T15:31:44.982Z,5.17
2019-03-26T15:34:13.849Z,4.97
2019-03-26T15:36:39.636Z,11.03
2019-03-26T15:39:08.603Z,9.00
2019-03-26T15:41:34.472Z,5.42
2019-03-26T15:44:00.565Z,3.83
2019-03-26T15:46:26.385Z,5.05
2019-03-26T15:48:52.301Z,5.53
2019-03-26T15:51:21.420Z,5.40
2019-03-26T15:53:47.270Z,5.80
2019-03-26T15:56:15.846Z,6.20
2019-03-26T15:58:41.714Z,5.83
2019-03-26T16:01:10.799Z,6.63
2019-03-26T16:03:36.633Z,6.78
2019-03-26T16:06:05.909Z,5.97
2019-03-26T16:08:31.763Z,6.33
2019-03-26T16:11:01.005Z,6.03
2019-03-26T16:13:26.829Z,6.30
2019-03-26T16:15:55.667Z,7.70
2019-03-26T16:18:21.603Z,7.97
2019-03-26T16:20:47.422Z,9.17
2019-03-26T16:23:13.227Z,7.70
2019-03-26T16:25:39.341Z,9.13
2019-03-26T16:28:06.555Z,8.83
2019-03-26T16:30:34.491Z,8.50
2019-03-26T16:33:00.505Z,7.90
2019-03-26T16:35:26.343Z,8.15
2019-03-26T16:37:54.948Z,8.60
2019-03-26T16:40:20.800Z,9.43
2019-03-26T16:42:50.118Z,9.33
2019-03-26T16:45:16.125Z,9.90
2019-03-26T16:47:44.969Z,8.85
2019-03-26T16:50:10.894Z,10.98
2019-03-26T16:52:39.557Z,9.00
2019-03-26T16:55:05.722Z,42.05
2019-03-26T16:57:31.517Z,67.72
2019-03-26T16:59:57.340Z,29.73
2019-03-26T17:02:23.192Z,8.90
2019-03-26T17:04:51.749Z,32.23
2019-03-26T17:07:17.558Z,23.62
2019-03-26T17:09:46.142Z,15.00
2019-03-26T17:12:11.952Z,9.23
2019-03-26T17:14:41.653Z,8.27
2019-03-26T17:17:07.527Z,8.80
2019-03-26T17:19:36.140Z,8.90
2019-03-26T17:22:01.977Z,8.90
2019-03-26T17:24:30.548Z,8.03
2019-03-26T17:26:56.652Z,8.15
2019-03-26T17:29:25.597Z,9.20
2019-03-26T17:31:51.541Z,8.53
2019-03-26T17:34:17.357Z,8.87
2019-03-26T17:36:43.437Z,8.20
2019-03-26T17:39:09.550Z,8.78
2019-03-26T17:41:36.999Z,8.80
2019-03-26T17:44:03.019Z,7.55
2019-03-26T17:46:31.571Z,7.55
2019-03-26T17:48:57.420Z,8.23
2019-03-26T17:51:25.689Z,7.90
2019-03-26T17:53:51.505Z,8.30
2019-03-26T17:56:21.037Z,7.13
2019-03-26T17:58:46.879Z,7.30
2019-03-26T18:01:15.744Z,7.27
2019-03-26T18:03:41.576Z,9.08
2019-03-26T18:06:10.868Z,7.93
2019-03-26T18:08:36.718Z,6.83
2019-03-26T18:11:02.508Z,8.47
2019-03-26T18:13:28.303Z,7.80
2019-03-26T18:15:54.168Z,7.77
2019-03-26T18:18:22.936Z,8.53
2019-03-26T18:20:49.051Z,7.08
2019-03-26T18:23:17.818Z,6.17
2019-03-26T18:25:43.747Z,7.75
2019-03-26T18:28:12.672Z,6.53
2019-03-26T18:30:38.505Z,7.42
2019-03-26T18:33:06.333Z,7.13
2019-03-26T18:35:32.138Z,8.00
2019-03-26T18:38:00.970Z,8.00
2019-03-26T18:40:26.767Z,7.55
2019-03-26T18:42:55.536Z,8.23
2019-03-26T18:45:21.341Z,7.70
2019-03-26T18:47:47.376Z,7.20
2019-03-26T18:50:13.994Z,7.10
2019-03-26T18:52:39.795Z,13.72
2019-03-26T18:55:06.987Z,9.47
2019-03-26T18:57:32.876Z,10.03
2019-03-26T19:00:06.242Z,8.33
2019-03-26T19:02:32.055Z,9.00
2019-03-26T19:04:57.893Z,9.40
2019-03-26T19:07:23.962Z,9.20
2019-03-26T19:09:52.784Z,10.38
2019-03-26T19:12:18.605Z,9.95
2019-03-26T19:14:47.360Z,10.20
2019-03-26T19:17:13.524Z,9.20
2019-03-26T19:19:42.062Z,9.45
2019-03-26T19:22:08.176Z,11.38
2019-03-26T19:24:34.027Z,10.63
2019-03-26T19:26:59.802Z,11.53
2019-03-26T19:29:25.785Z,10.30
2019-03-26T19:31:53.068Z,9.80
2019-03-26T19:34:18.895Z,12.82
2019-03-26T19:36:47.762Z,12.30
2019-03-26T19:39:13.570Z,11.80
2019-03-26T19:41:42.235Z,12.70
2019-03-26T19:44:08.051Z,12.40
2019-03-26T19:46:36.736Z,13.97
2019-03-26T19:49:02.680Z,12.07
2019-03-26T19:51:31.660Z,11.43
2019-03-26T19:53:57.503Z,11.90
2019-03-26T19:56:26.360Z,10.80
2019-03-26T19:58:52.425Z,10.95
2019-03-26T20:01:18.265Z,10.43
2019-03-26T20:03:44.104Z,10.53
2019-03-26T20:06:13.731Z,11.40
2019-03-26T20:08:37.654Z,9.85
2019-03-26T20:11:03.509Z,11.83
2019-03-26T20:13:32.366Z,9.57
2019-03-26T20:15:58.161Z,11.28
2019-03-26T20:18:26.772Z,9.77
2019-03-26T20:20:52.633Z,9.63
2019-03-26T20:23:23.259Z,9.27
2019-03-26T20:25:49.465Z,10.05
2019-03-26T20:28:18.587Z,10.53
2019-03-26T20:30:44.379Z,10.80
2019-03-26T20:33:13.267Z,12.20
2019-03-26T20:35:39.382Z,12.68
2019-03-26T20:38:05.302Z,11.48
2019-03-26T20:40:31.119Z,16.77
2019-03-26T20:42:56.902Z,21.30
2019-03-26T20:45:22.906Z,13.00
2019-03-26T20:47:48.732Z,13.75
2019-03-26T20:50:17.865Z,13.07
2019-03-26T20:52:43.684Z,13.95
2019-03-26T20:55:14.533Z,13.07
2019-03-26T20:57:40.454Z,12.65
2019-03-26T21:00:10.094Z,12.17
2019-03-26T21:02:36.268Z,13.20
2019-03-26T21:05:02.537Z,11.25
2019-03-26T21:07:28.404Z,14.23
2019-03-26T21:09:57.169Z,13.87
2019-03-26T21:12:23.066Z,14.87
2019-03-26T21:14:48.908Z,17.70
2019-03-26T21:17:15.038Z,13.77
2019-03-26T21:19:40.884Z,14.20
2019-03-26T21:22:10.004Z,14.47
2019-03-26T21:24:36.139Z,13.22
2019-03-26T21:27:04.751Z,12.78
2019-03-26T21:29:30.592Z,12.70
2019-03-26T21:31:59.435Z,12.80
2019-03-26T21:34:30.534Z,12.47
2019-03-26T21:36:53.240Z,13.22
2019-03-26T21:39:19.067Z,13.37
2019-03-26T21:41:47.911Z,12.33
2019-03-26T21:44:13.767Z,12.95
2019-03-26T21:46:42.363Z,12.50
2019-03-26T21:49:08.160Z,10.53
2019-03-26T21:51:34.297Z,11.97
2019-03-26T21:54:00.437Z,13.03
2019-03-26T21:56:26.245Z,11.88
2019-03-26T21:58:55.088Z,16.53
2019-03-26T22:01:20.900Z,21.70
2019-03-26T22:03:49.511Z,15.73
2019-03-26T22:06:15.599Z,14.45
2019-03-26T22:08:43.127Z,16.25
2019-03-26T22:11:08.903Z,16.37
2019-03-26T22:13:37.517Z,15.27
2019-03-26T22:16:03.345Z,14.43
2019-03-26T22:18:33.744Z,12.53
2019-03-26T22:20:59.548Z,13.50
2019-03-26T22:23:28.118Z,12.40
2019-03-26T22:25:54.066Z,12.13
2019-03-26T22:28:20.141Z,10.93
2019-03-26T22:30:45.940Z,12.60
2019-03-26T22:33:12.542Z,10.97
2019-03-26T22:35:39.854Z,10.23
2019-03-26T22:38:05.662Z,11.25
2019-03-26T22:40:34.718Z,12.03
2019-03-26T22:43:00.534Z,14.28
2019-03-26T22:45:29.527Z,13.97
2019-03-26T22:47:55.357Z,12.70
2019-03-26T22:50:23.956Z,12.97
2019-03-26T22:52:50.041Z,12.20
2019-03-26T22:55:18.888Z,13.35
2019-03-26T22:57:44.779Z,13.10
2019-03-26T23:00:17.857Z,13.90
2019-03-26T23:02:43.740Z,12.60
2019-03-26T23:05:09.830Z,13.43
2019-03-26T23:07:35.702Z,14.10
2019-03-26T23:10:02.227Z,11.30
2019-03-26T23:12:28.032Z,13.18
2019-03-26T23:14:53.975Z,11.90
2019-03-26T23:17:20.187Z,11.63
2019-03-26T23:19:46.273Z,11.93
2019-03-26T23:22:15.353Z,15.25
2019-03-26T23:24:41.154Z,11.28
2019-03-26T23:27:10.072Z,9.40
2019-03-26T23:29:35.910Z,10.00
2019-03-26T23:32:04.487Z,10.77
2019-03-26T23:34:30.308Z,9.83
2019-03-26T23:36:58.965Z,9.70
2019-03-26T23:39:24.798Z,12.07
2019-03-26T23:41:50.591Z,10.43
2019-03-26T23:44:25.682Z,11.50
2019-03-26T23:46:44.166Z,9.33
2019-03-26T23:49:10.003Z,10.90
2019-03-26T23:51:36.181Z,9.43
2019-03-26T23:54:05.024Z,10.15
2019-03-26T23:56:31.099Z,10.72
2019-03-26T23:58:59.994Z,11.60
